Time,TemperatureF,DewpointF,PressureIn,WindDirection,WindDirectionDegrees,WindSpeedMPH,WindSpeedGustMPH,Humidity,HourlyPrecipIn,Conditions,Clouds,dailyrainin,SoftwareType,DateUTC
2013-03-09 00:07:00,27.5,26.0,30.41,NE,53,0.0,-999.0,92,-99.99,,,0.03,weatherlink.com 1.10,2013-03-09 05:07:00,
2013-03-09 00:22:00,27.3,25.0,30.41,NE,53,0.0,-999.0,92,-99.99,,,0.00,weatherlink.com 1.10,2013-03-09 05:22:00,
2013-03-09 00:37:00,27.2,26.0,30.41,NE,53,0.0,-999.0,93,-99.99,,,0.00,weatherlink.com 1.10,2013-03-09 05:37:00,
2013-03-09 00:52:00,27.0,25.0,30.41,NE,53,0.0,-999.0,92,-99.99,,,0.00,weatherlink.com 1.10,2013-03-09 05:52:00,
2013-03-09 01:07:00,26.9,25.0,30.42,NE,53,0.0,-999.0,93,-99.99,,,0.00,weatherlink.com 1.10,2013-03-09 06:07:00,
2013-03-09 01:22:00,26.8,25.0,30.42,NE,53,0.0,-999.0,93,-99.99,,,0.00,weatherlink.com 1.10,2013-03-09 06:22:00,
2013-03-09 01:37:00,26.6,25.0,30.42,NE,53,0.0,-999.0,93,-99.99,,,0.00,weatherlink.com 1.10,2013-03-09 06:37:00,
2013-03-09 01:52:00,26.5,25.0,30.41,NE,53,0.0,-999.0,93,-99.99,,,0.00,weatherlink.com 1.10,2013-03-09 06:52:00,
2013-03-09 02:07:00,26.3,25.0,30.41,NE,53,0.0,-999.0,93,-99.99,,,0.00,weatherlink.com 1.10,2013-03-09 07:07:00,
2013-03-09 02:22:00,26.1,24.0,30.41,NE,53,0.0,-999.0,93,-99.99,,,0.00,weatherlink.com 1.10,2013-03-09 07:22:00,
2013-03-09 02:52:00,25.9,24.0,30.40,NE,53,0.0,-999.0,94,-99.99,,,0.00,weatherlink.com 1.10,2013-03-09 07:52:00,
2013-03-09 03:07:00,26.1,25.0,30.40,NE,53,0.0,-999.0,94,-99.99,,,0.00,weatherlink.com 1.10,2013-03-09 08:07:00,
2013-03-09 03:22:00,26.0,24.0,30.39,NE,53,0.0,-999.0,93,-99.99,,,0.00,weatherlink.com 1.10,2013-03-09 08:22:00,
2013-03-09 03:37:00,26.0,24.0,30.39,NE,53,0.0,-999.0,93,-99.99,,,0.00,weatherlink.com 1.10,2013-03-09 08:37:00,
2013-03-09 03:52:00,25.8,24.0,30.38,NE,53,0.0,-999.0,93,-99.99,,,0.00,weatherlink.com 1.10,2013-03-09 08:52:00,
2013-03-09 04:07:00,25.7,24.0,30.38,NE,53,0.0,-999.0,94,-99.99,,,0.00,weatherlink.com 1.10,2013-03-09 09:07:00,
2013-03-09 04:22:00,25.6,24.0,30.38,NE,53,0.0,-999.0,94,-99.99,,,0.00,weatherlink.com 1.10,2013-03-09 09:22:00,
2013-03-09 04:37:00,25.7,24.0,30.38,NE,53,0.0,-999.0,94,-99.99,,,0.00,weatherlink.com 1.10,2013-03-09 09:37:00,
2013-03-09 04:52:00,25.3,24.0,30.38,NE,53,0.0,-999.0,93,-99.99,,,0.00,weatherlink.com 1.10,2013-03-09 09:52:00,
2013-03-09 05:07:00,25.2,24.0,30.39,NE,53,0.0,-999.0,93,-99.99,,,0.00,weatherlink.com 1.10,2013-03-09 10:07:00,
2013-03-09 05:22:00,24.9,23.0,30.40,NE,53,0.0,-999.0,93,-99.99,,,0.00,weatherlink.com 1.10,2013-03-09 10:22:00,
2013-03-09 05:37:00,24.8,23.0,30.40,NE,53,0.0,-999.0,93,-99.99,,,0.00,weatherlink.com 1.10,2013-03-09 10:37:00,
2013-03-09 05:52:00,24.7,23.0,30.40,NE,53,0.0,-999.0,94,-99.99,,,0.00,weatherlink.com 1.10,2013-03-09 10:52:00,
2013-03-09 06:07:00,24.7,23.0,30.40,NE,53,0.0,-999.0,93,-99.99,,,0.00,weatherlink.com 1.10,2013-03-09 11:07:00,
2013-03-09 06:22:00,24.6,23.0,30.41,NE,53,0.0,-999.0,93,-99.99,,,0.00,weatherlink.com 1.10,2013-03-09 11:22:00,
2013-03-09 06:37:00,24.4,23.0,30.41,NE,53,0.0,-999.0,94,-99.99,,,0.00,weatherlink.com 1.10,2013-03-09 11:37:00,
2013-03-09 06:52:00,24.5,23.0,30.42,NE,53,0.0,-999.0,94,-99.99,,,0.00,weatherlink.com 1.10,2013-03-09 11:52:00,
2013-03-09 07:07:00,24.6,23.0,30.42,NE,53,0.0,-999.0,94,-99.99,,,0.00,weatherlink.com 1.10,2013-03-09 12:07:00,
2013-03-09 07:22:00,24.8,23.0,30.42,NE,53,0.0,-999.0,94,-99.99,,,0.00,weatherlink.com 1.10,2013-03-09 12:22:00,
2013-03-09 07:37:00,25.3,24.0,30.42,NE,53,0.0,-999.0,94,-99.99,,,0.00,weatherlink.com 1.10,2013-03-09 12:37:00,
2013-03-09 07:52:00,26.0,25.0,30.42,NE,53,0.0,-999.0,94,-99.99,,,0.00,weatherlink.com 1.10,2013-03-09 12:52:00,
2013-03-09 08:07:00,27.3,26.0,30.42,South,175,0.0,-999.0,93,-99.99,,,0.00,weatherlink.com 1.10,2013-03-09 13:07:00,
2013-03-09 08:22:00,28.2,27.0,30.42,South,175,0.0,-999.0,93,-99.99,,,0.00,weatherlink.com 1.10,2013-03-09 13:22:00,
2013-03-09 08:37:00,29.9,28.0,30.43,SSW,192,0.0,-999.0,91,-99.99,,,0.00,weatherlink.com 1.10,2013-03-09 13:37:00,
2013-03-09 08:52:00,31.6,29.0,30.44,SSW,192,0.0,-999.0,89,-99.99,,,0.00,weatherlink.com 1.10,2013-03-09 13:52:00,
2013-03-09 09:07:00,33.6,30.0,30.44,SSW,207,0.0,-999.0,87,-99.99,,,0.00,weatherlink.com 1.10,2013-03-09 14:07:00,
2013-03-09 09:22:00,35.1,31.0,30.43,NW,312,0.0,-999.0,85,-99.99,,,0.00,weatherlink.com 1.10,2013-03-09 14:22:00,
2013-03-09 09:37:00,35.4,31.0,30.43,NW,316,0.0,-999.0,84,-99.99,,,0.00,weatherlink.com 1.10,2013-03-09 14:37:00,
2013-03-09 09:52:00,35.9,32.0,30.42,WNW,296,0.0,-999.0,84,-99.99,,,0.00,weatherlink.com 1.10,2013-03-09 14:52:00,
2013-03-09 10:07:00,36.3,31.0,30.41,NNE,28,1.0,-999.0,82,-99.99,,,0.00,weatherlink.com 1.10,2013-03-09 15:07:00,
2013-03-09 10:22:00,37.5,32.0,30.41,NW,309,0.0,-999.0,81,-99.99,,,0.00,weatherlink.com 1.10,2013-03-09 15:22:00,
2013-03-09 10:37:00,38.3,32.0,30.41,NW,313,0.0,-999.0,79,-99.99,,,0.00,weatherlink.com 1.10,2013-03-09 15:37:00,
2013-03-09 10:52:00,39.3,32.0,30.40,WNW,300,0.0,-999.0,76,-99.99,,,0.00,weatherlink.com 1.10,2013-03-09 15:52:00,
2013-03-09 11:07:00,39.8,32.0,30.39,NW,313,0.0,-999.0,75,-99.99,,,0.00,weatherlink.com 1.10,2013-03-09 16:07:00,
2013-03-09 11:22:00,40.8,33.0,30.39,NE,37,0.0,-999.0,73,-99.99,,,0.00,weatherlink.com 1.10,2013-03-09 16:22:00,
2013-03-09 11:37:00,42.6,33.0,30.39,ENE,59,3.0,-999.0,70,-99.99,,,0.00,weatherlink.com 1.10,2013-03-09 16:37:00,
2013-03-09 11:52:00,43.0,33.0,30.39,NNE,15,0.0,-999.0,67,-99.99,,,0.00,weatherlink.com 1.10,2013-03-09 16:52:00,
2013-03-09 12:07:00,43.4,33.0,30.38,ENE,65,0.0,-999.0,68,-99.99,,,0.00,weatherlink.com 1.10,2013-03-09 17:07:00,
2013-03-09 12:22:00,44.4,32.0,30.38,SE,132,0.0,-999.0,63,-99.99,,,0.00,weatherlink.com 1.10,2013-03-09 17:22:00,
2013-03-09 12:37:00,45.4,33.0,30.37,ENE,64,0.0,-999.0,63,-99.99,,,0.00,weatherlink.com 1.10,2013-03-09 17:37:00,
2013-03-09 12:52:00,45.7,30.0,30.37,ESE,119,0.0,-999.0,55,-99.99,,,0.00,weatherlink.com 1.10,2013-03-09 17:52:00,
2013-03-09 13:07:00,46.2,31.0,30.36,SW,216,0.0,-999.0,56,-99.99,,,0.00,weatherlink.com 1.10,2013-03-09 18:07:00,
2013-03-09 13:22:00,47.0,32.0,30.36,WSW,248,0.0,-999.0,56,-99.99,,,0.00,weatherlink.com 1.10,2013-03-09 18:22:00,
2013-03-09 13:37:00,47.5,31.0,30.35,WSW,238,4.0,-999.0,54,-99.99,,,0.00,weatherlink.com 1.10,2013-03-09 18:37:00,
2013-03-09 13:52:00,47.5,30.0,30.35,WNW,286,0.0,-999.0,51,-99.99,,,0.00,weatherlink.com 1.10,2013-03-09 18:52:00,
2013-03-09 14:07:00,48.2,30.0,30.34,NE,39,1.0,-999.0,49,-99.99,,,0.00,weatherlink.com 1.10,2013-03-09 19:07:00,
2013-03-09 14:22:00,48.9,29.0,30.34,WSW,242,2.0,-999.0,47,-99.99,,,0.00,weatherlink.com 1.10,2013-03-09 19:22:00,
2013-03-09 14:37:00,49.8,29.0,30.33,SW,215,1.0,-999.0,45,-99.99,,,0.00,weatherlink.com 1.10,2013-03-09 19:37:00,
2013-03-09 14:52:00,49.5,29.0,30.32,SE,132,1.0,-999.0,46,-99.99,,,0.00,weatherlink.com 1.10,2013-03-09 19:52:00,
2013-03-09 15:07:00,50.0,29.0,30.32,SSW,213,1.0,-999.0,44,-99.99,,,0.00,weatherlink.com 1.10,2013-03-09 20:07:00,
2013-03-09 15:22:00,49.9,30.0,30.31,SSE,153,0.0,-999.0,46,-99.99,,,0.00,weatherlink.com 1.10,2013-03-09 20:22:00,
2013-03-09 15:37:00,49.7,29.0,30.31,SE,142,0.0,-999.0,46,-99.99,,,0.00,weatherlink.com 1.10,2013-03-09 20:37:00,
2013-03-09 15:52:00,49.7,29.0,30.30,NE,35,1.0,-999.0,45,-99.99,,,0.00,weatherlink.com 1.10,2013-03-09 20:52:00,
2013-03-09 16:07:00,49.6,29.0,30.30,SSW,210,0.0,-999.0,46,-99.99,,,0.00,weatherlink.com 1.10,2013-03-09 21:07:00,
2013-03-09 16:22:00,49.5,29.0,30.30,East,80,2.0,-999.0,46,-99.99,,,0.00,weatherlink.com 1.10,2013-03-09 21:22:00,
2013-03-09 16:37:00,49.3,30.0,30.29,SE,126,0.0,-999.0,47,-99.99,,,0.00,weatherlink.com 1.10,2013-03-09 21:37:00,
2013-03-09 16:52:00,49.2,29.0,30.29,South,174,0.0,-999.0,46,-99.99,,,0.00,weatherlink.com 1.10,2013-03-09 21:52:00,
2013-03-09 17:07:00,49.3,29.0,30.29,East,96,0.0,-999.0,46,-99.99,,,0.00,weatherlink.com 1.10,2013-03-09 22:07:00,
2013-03-09 17:22:00,49.1,30.0,30.29,ESE,102,0.0,-999.0,48,-99.99,,,0.00,weatherlink.com 1.10,2013-03-09 22:22:00,
2013-03-09 17:37:00,48.6,29.0,30.28,ESE,123,0.0,-999.0,47,-99.99,,,0.00,weatherlink.com 1.10,2013-03-09 22:37:00,
2013-03-09 17:52:00,47.8,29.0,30.28,ESE,123,0.0,-999.0,48,-99.99,,,0.00,weatherlink.com 1.10,2013-03-09 22:52:00,
2013-03-09 18:07:00,46.7,28.0,30.28,ESE,123,0.0,-999.0,49,-99.99,,,0.00,weatherlink.com 1.10,2013-03-09 23:07:00,
2013-03-09 18:22:00,45.4,28.0,30.28,ESE,123,0.0,-999.0,51,-99.99,,,0.00,weatherlink.com 1.10,2013-03-09 23:22:00,
2013-03-09 18:37:00,43.9,28.0,30.28,ESE,123,0.0,-999.0,53,-99.99,,,0.00,weatherlink.com 1.10,2013-03-09 23:37:00,
2013-03-09 18:52:00,42.4,28.0,30.28,ESE,123,0.0,-999.0,57,-99.99,,,0.00,weatherlink.com 1.10,2013-03-09 23:52:00,
2013-03-09 19:07:00,41.1,28.0,30.27,ESE,123,0.0,-999.0,59,-99.99,,,0.00,weatherlink.com 1.10,2013-03-10 00:07:00,
2013-03-09 19:22:00,40.1,28.0,30.27,ESE,123,0.0,-999.0,63,-99.99,,,0.00,weatherlink.com 1.10,2013-03-10 00:22:00,
2013-03-09 19:37:00,39.7,29.0,30.28,ESE,123,0.0,-999.0,67,-99.99,,,0.00,weatherlink.com 1.10,2013-03-10 00:37:00,
2013-03-09 19:52:00,39.4,30.0,30.27,ESE,123,0.0,-999.0,68,-99.99,,,0.00,weatherlink.com 1.10,2013-03-10 00:52:00,
2013-03-09 20:07:00,39.0,30.0,30.26,ESE,123,0.0,-999.0,69,-99.99,,,0.00,weatherlink.com 1.10,2013-03-10 01:07:00,
2013-03-09 20:22:00,38.4,29.0,30.26,ESE,123,0.0,-999.0,70,-99.99,,,0.00,weatherlink.com 1.10,2013-03-10 01:22:00,
2013-03-09 20:37:00,37.7,29.0,30.25,ESE,123,0.0,-999.0,72,-99.99,,,0.00,weatherlink.com 1.10,2013-03-10 01:37:00,
2013-03-09 20:52:00,36.9,29.0,30.25,ESE,123,0.0,-999.0,73,-99.99,,,0.00,weatherlink.com 1.10,2013-03-10 01:52:00,
2013-03-09 21:07:00,36.4,29.0,30.25,ESE,123,0.0,-999.0,74,-99.99,,,0.00,weatherlink.com 1.10,2013-03-10 02:07:00,
2013-03-09 21:22:00,35.8,29.0,30.25,ESE,123,0.0,-999.0,75,-99.99,,,0.00,weatherlink.com 1.10,2013-03-10 02:22:00,
2013-03-09 21:37:00,35.1,29.0,30.24,ESE,123,0.0,-999.0,77,-99.99,,,0.00,weatherlink.com 1.10,2013-03-10 02:37:00,
2013-03-09 21:52:00,34.4,29.0,30.24,ESE,123,0.0,-999.0,79,-99.99,,,0.00,weatherlink.com 1.10,2013-03-10 02:52:00,
2013-03-09 22:07:00,33.7,28.0,30.23,ESE,123,0.0,-999.0,81,-99.99,,,0.00,weatherlink.com 1.10,2013-03-10 03:07:00,
2013-03-09 22:22:00,33.2,28.0,30.23,ESE,123,0.0,-999.0,81,-99.99,,,0.00,weatherlink.com 1.10,2013-03-10 03:22:00,
2013-03-09 22:37:00,32.6,28.0,30.22,ESE,123,0.0,-999.0,83,-99.99,,,0.00,weatherlink.com 1.10,2013-03-10 03:37:00,
2013-03-09 22:52:00,32.2,28.0,30.22,ESE,123,0.0,-999.0,84,-99.99,,,0.00,weatherlink.com 1.10,2013-03-10 03:52:00,
2013-03-09 23:07:00,31.9,28.0,30.21,ESE,123,0.0,-999.0,84,-99.99,,,0.00,weatherlink.com 1.10,2013-03-10 04:07:00,
2013-03-09 23:22:00,31.9,28.0,30.20,NE,38,0.0,-999.0,85,-99.99,,,0.00,weatherlink.com 1.10,2013-03-10 04:22:00,
2013-03-09 23:37:00,32.8,29.0,30.20,SE,126,0.0,-999.0,84,-99.99,,,0.00,weatherlink.com 1.10,2013-03-10 04:37:00,
2013-03-09 23:52:00,34.7,29.0,30.19,SE,134,2.0,-999.0,79,-99.99,,,0.00,weatherlink.com 1.10,2013-03-10 04:52:00,